createdAt,value
2023-04-10T00:02:26.765Z,96951.53
2023-04-10T00:04:54.450Z,96957.88
2023-04-10T00:07:23.297Z,96958.94
2023-04-10T00:09:50.883Z,96951.59
2023-04-10T00:12:18.435Z,96956.75
2023-04-10T00:14:46.184Z,96960.81
2023-04-10T00:17:13.718Z,96958.72
2023-04-10T00:19:41.176Z,96962.88
2023-04-10T00:22:08.635Z,96951.84
2023-04-10T00:24:37.479Z,96950.31
2023-04-10T00:27:04.969Z,96943.09
2023-04-10T00:29:32.460Z,96938.75
2023-04-10T00:31:59.958Z,96944.03
2023-04-10T00:34:27.456Z,96941.13
2023-04-10T00:36:54.906Z,96939.03
2023-04-10T00:39:22.371Z,96931.66
2023-04-10T00:41:51.163Z,96937.50
2023-04-10T00:44:18.650Z,96938.50
2023-04-10T00:46:46.176Z,96936.44
2023-04-10T00:49:14.267Z,96930.63
2023-04-10T00:51:43.599Z,96919.53
2023-04-10T00:54:12.062Z,96918.47
2023-04-10T00:56:40.989Z,96926.44
2023-04-10T00:59:10.300Z,96927.28
2023-04-10T01:01:37.857Z,96925.38
2023-04-10T01:04:05.928Z,96918.97
2023-04-10T01:06:48.914Z,96915.81
2023-04-10T01:09:27.824Z,96917.34
2023-04-10T01:11:59.420Z,96900.00
2023-04-10T01:14:38.918Z,96896.78
2023-04-10T01:17:11.785Z,96899.41
2023-04-10T01:20:07.937Z,96896.31
2023-04-10T01:22:37.593Z,96901.47
2023-04-10T01:25:29.807Z,96901.66
2023-04-10T01:28:12.222Z,96898.44
2023-04-10T01:30:42.126Z,96898.25
2023-04-10T01:33:13.642Z,96890.69
2023-04-10T01:35:44.123Z,96904.09
2023-04-10T01:38:13.125Z,96901.41
2023-04-10T01:40:42.208Z,96905.00
2023-04-10T01:43:12.561Z,96910.25
2023-04-10T01:45:43.680Z,96911.25
2023-04-10T01:48:11.599Z,96909.03
2023-04-10T01:50:39.745Z,96903.19
2023-04-10T01:53:08.251Z,96901.03
2023-04-10T01:55:38.153Z,96904.56
2023-04-10T01:58:06.000Z,96896.16
2023-04-10T02:00:39.295Z,96888.59
2023-04-10T02:03:08.702Z,96891.47
2023-04-10T02:05:46.079Z,96887.53
2023-04-10T02:08:18.646Z,96882.41
2023-04-10T02:10:52.854Z,96882.13
2023-04-10T02:13:22.642Z,96879.16
2023-04-10T02:15:52.527Z,96872.84
2023-04-10T02:18:23.669Z,96877.44
2023-04-10T02:20:52.627Z,96871.25
2023-04-10T02:23:21.502Z,96874.97
2023-04-10T02:25:48.997Z,96883.22
2023-04-10T02:28:16.482Z,96871.44
2023-04-10T02:30:43.936Z,96881.94
2023-04-10T02:33:11.466Z,96883.66
2023-04-10T02:35:40.250Z,96883.44
2023-04-10T02:38:07.969Z,96885.09
2023-04-10T02:40:36.216Z,96889.88
2023-04-10T02:43:03.658Z,96891.22
2023-04-10T02:45:33.129Z,96888.09
2023-04-10T02:48:00.746Z,96895.03
2023-04-10T02:50:29.695Z,96898.06
2023-04-10T02:52:58.748Z,96900.50
2023-04-10T02:55:26.224Z,96899.34
2023-04-10T02:57:53.661Z,96898.19
2023-04-10T03:00:21.352Z,96890.53
2023-04-10T03:02:49.026Z,96895.25
2023-04-10T03:05:16.700Z,96895.63
2023-04-10T03:07:44.159Z,96899.84
2023-04-10T03:10:12.988Z,96893.97
2023-04-10T03:12:40.457Z,96895.13
2023-04-10T03:15:09.096Z,96892.53
2023-04-10T03:17:36.592Z,96893.03
2023-04-10T03:20:04.252Z,96888.00
2023-04-10T03:22:33.132Z,96887.47
2023-04-10T03:25:01.246Z,96894.69
2023-04-10T03:27:32.128Z,96891.63
2023-04-10T03:29:59.602Z,96892.09
2023-04-10T03:32:28.089Z,96893.56
2023-04-10T03:34:55.710Z,96891.06
2023-04-10T03:37:23.266Z,96897.97
2023-04-10T03:39:50.750Z,96901.97
2023-04-10T03:42:18.238Z,96898.25
2023-04-10T03:44:47.025Z,96899.94
2023-04-10T03:47:14.542Z,96896.50
2023-04-10T03:49:42.024Z,96905.09
2023-04-10T03:52:09.516Z,96904.47
2023-04-10T03:54:36.989Z,96907.31
2023-04-10T03:57:04.498Z,96912.06
2023-04-10T03:59:38.680Z,96909.72
2023-04-10T04:02:08.814Z,96905.50
2023-04-10T04:04:36.704Z,96903.16
2023-04-10T04:07:04.277Z,96898.03
2023-04-10T04:09:31.863Z,96905.16
2023-04-10T04:11:59.356Z,96906.34
2023-04-10T04:14:26.808Z,96905.94
2023-04-10T04:16:54.315Z,96901.72
2023-04-10T04:19:23.163Z,96901.09
2023-04-10T04:21:50.685Z,96905.59
2023-04-10T04:24:18.157Z,96911.88
2023-04-10T04:26:45.607Z,96908.97
2023-04-10T04:29:13.043Z,96912.22
2023-04-10T04:31:40.552Z,96916.53
2023-04-10T04:34:08.050Z,96919.13
2023-04-10T04:36:36.842Z,96929.53
2023-04-10T04:39:04.386Z,96926.72
2023-04-10T04:41:32.566Z,96932.13
2023-04-10T04:44:01.090Z,96935.81
2023-04-10T04:46:28.763Z,96941.28
2023-04-10T04:48:56.309Z,96938.78
2023-04-10T04:51:23.977Z,96943.22
2023-04-10T04:53:53.186Z,96947.03
2023-04-10T04:56:20.930Z,96940.38
2023-04-10T04:58:48.392Z,96944.16
2023-04-10T05:01:16.032Z,96938.06
2023-04-10T05:03:43.690Z,96936.28
2023-04-10T05:06:11.770Z,96937.56
2023-04-10T05:08:39.291Z,96945.94
2023-04-10T05:11:08.309Z,96932.56
2023-04-10T05:13:35.842Z,96936.47
2023-04-10T05:16:03.335Z,96936.53
2023-04-10T05:18:31.111Z,96944.38
2023-04-10T05:20:58.630Z,96946.16
2023-04-10T05:23:26.158Z,96934.31
2023-04-10T05:25:53.617Z,96929.88
2023-04-10T05:28:23.267Z,96941.00
2023-04-10T05:30:50.734Z,96939.03
2023-04-10T05:33:18.238Z,96950.03
2023-04-10T05:35:47.219Z,96943.34
2023-04-10T05:38:14.697Z,96936.19
2023-04-10T05:40:45.790Z,96925.72
2023-04-10T05:43:13.550Z,96929.44
2023-04-10T05:45:44.932Z,96926.75
2023-04-10T05:48:12.409Z,96931.41
2023-04-10T05:50:39.878Z,96928.50
2023-04-10T05:53:07.360Z,96920.75
2023-04-10T05:55:34.824Z,96924.44
2023-04-10T05:58:02.312Z,96921.25
2023-04-10T06:00:29.915Z,96917.44
2023-04-10T06:02:59.040Z,96920.97
2023-04-10T06:05:26.647Z,96920.31
2023-04-10T06:07:55.251Z,96924.91
2023-04-10T06:10:24.418Z,96924.41
2023-04-10T06:12:51.927Z,96918.41
2023-04-10T06:15:19.499Z,96919.63
2023-04-10T06:17:47.008Z,96915.34
2023-04-10T06:20:15.858Z,96910.31
2023-04-10T06:22:43.312Z,96908.25
2023-04-10T06:25:11.190Z,96912.31
2023-04-10T06:27:38.882Z,96908.81
2023-04-10T06:30:07.851Z,96906.88
2023-04-10T06:32:35.320Z,96901.63
2023-04-10T06:35:02.816Z,96895.25
2023-04-10T06:37:32.695Z,96886.13
2023-04-10T06:40:05.867Z,96896.09
2023-04-10T06:42:33.349Z,96887.97
2023-04-10T06:45:01.411Z,96896.69
2023-04-10T06:47:29.192Z,96889.25
2023-04-10T06:49:56.698Z,96888.66
2023-04-10T06:52:24.255Z,96890.75
2023-04-10T06:54:53.198Z,96887.84
2023-04-10T06:57:21.235Z,96894.19
2023-04-10T06:59:48.797Z,96894.84
2023-04-10T07:02:16.356Z,96896.22
2023-04-10T07:04:43.842Z,96894.00
2023-04-10T07:07:13.258Z,96891.47
2023-04-10T07:09:41.189Z,96898.13
2023-04-10T07:12:09.993Z,96902.78
2023-04-10T07:14:37.483Z,96901.94
2023-04-10T07:17:04.942Z,96907.41
2023-04-10T07:19:32.462Z,96910.75
2023-04-10T07:22:00.588Z,96904.16
2023-04-10T07:24:28.349Z,96901.53
2023-04-10T07:26:57.185Z,96895.22
2023-04-10T07:29:26.136Z,96898.50
2023-04-10T07:31:53.685Z,96902.28
2023-04-10T07:34:21.189Z,96907.19
2023-04-10T07:36:48.659Z,96903.13
2023-04-10T07:39:16.148Z,96899.16
2023-04-10T07:41:44.002Z,96902.91
2023-04-10T07:44:13.058Z,96903.94
2023-04-10T07:46:41.989Z,96906.22
2023-04-10T07:49:09.480Z,96907.03
2023-04-10T07:51:37.067Z,96910.38
2023-04-10T07:54:04.720Z,96911.06
2023-04-10T07:56:32.210Z,96910.28
2023-04-10T07:59:00.781Z,96911.59
2023-04-10T08:01:28.651Z,96904.53
2023-04-10T08:03:57.663Z,96905.72
2023-04-10T08:06:25.794Z,96898.78
2023-04-10T08:08:53.555Z,96891.72
2023-04-10T08:11:27.424Z,96893.22
2023-04-10T08:13:55.789Z,96893.06
2023-04-10T08:16:25.075Z,96890.53
2023-04-10T08:18:52.969Z,96888.00
2023-04-10T08:21:22.516Z,96887.72
2023-04-10T08:23:51.584Z,96888.34
2023-04-10T08:26:19.563Z,96888.34
2023-04-10T08:28:50.033Z,96882.94
2023-04-10T08:31:17.787Z,96882.69
2023-04-10T08:33:45.563Z,96896.72
2023-04-10T08:36:16.936Z,96891.59
2023-04-10T08:38:47.202Z,96900.38
2023-04-10T08:41:16.357Z,96900.22
2023-04-10T08:43:45.762Z,96895.28
2023-04-10T08:46:14.290Z,96905.50
2023-04-10T08:48:47.773Z,96889.28
2023-04-10T08:51:20.491Z,96900.81
2023-04-10T08:54:03.504Z,96898.72
2023-04-10T08:56:33.590Z,96885.91
2023-04-10T08:59:02.964Z,96890.22
2023-04-10T09:01:30.644Z,96884.88
2023-04-10T09:03:59.767Z,96890.00
2023-04-10T09:06:27.689Z,96890.66
2023-04-10T09:08:56.476Z,96885.53
2023-04-10T09:11:23.923Z,96886.81
2023-04-10T09:13:51.365Z,96879.63
2023-04-10T09:16:18.803Z,96885.09
2023-04-10T09:18:48.380Z,96873.13
2023-04-10T09:21:17.334Z,96876.59
2023-04-10T09:23:45.932Z,96877.53
2023-04-10T09:26:29.555Z,96867.50
2023-04-10T09:28:58.738Z,96869.13
2023-04-10T09:31:31.691Z,96872.47
2023-04-10T09:34:10.114Z,96871.88
2023-04-10T09:36:38.228Z,96871.22
2023-04-10T09:39:06.790Z,96873.13
2023-04-10T09:41:35.852Z,96870.63
2023-04-10T09:44:08.301Z,96849.13
2023-04-10T09:46:36.089Z,96867.59
2023-04-10T09:49:05.212Z,96864.81
2023-04-10T09:51:34.591Z,96861.31
2023-04-10T09:54:02.418Z,96857.84
2023-04-10T09:56:30.406Z,96853.25
2023-04-10T09:59:00.610Z,96850.66
2023-04-10T10:01:29.988Z,96842.28
2023-04-10T10:04:02.132Z,96841.16
2023-04-10T10:06:31.609Z,96842.84
2023-04-10T10:09:03.061Z,96843.56
2023-04-10T10:11:33.504Z,96836.06
2023-04-10T10:14:04.628Z,96835.44
2023-04-10T10:16:37.949Z,96824.81
2023-04-10T10:19:10.499Z,96828.59
2023-04-10T10:21:39.445Z,96822.53
2023-04-10T10:24:09.863Z,96815.13
2023-04-10T10:26:40.019Z,96819.69
2023-04-10T10:29:11.033Z,96810.03
2023-04-10T10:31:39.178Z,96805.94
2023-04-10T10:34:09.062Z,96802.34
2023-04-10T10:36:37.188Z,96795.19
2023-04-10T10:39:19.161Z,96794.69
2023-04-10T10:41:54.210Z,96778.63
2023-04-10T10:44:30.865Z,96780.56
2023-04-10T10:47:07.368Z,96775.63
2023-04-10T10:49:55.372Z,96770.94
2023-04-10T10:52:39.454Z,96764.75
2023-04-10T10:55:31.428Z,96775.41
2023-04-10T10:58:01.697Z,96767.31
2023-04-10T11:01:02.561Z,96759.03
2023-04-10T11:03:31.544Z,96762.31
2023-04-10T11:06:02.247Z,96758.91
2023-04-10T11:08:43.338Z,96753.53
2023-04-10T11:11:15.689Z,96741.94
2023-04-10T11:14:12.110Z,96747.22
2023-04-10T11:16:44.619Z,96741.13
2023-04-10T11:19:15.796Z,96728.88
2023-04-10T11:22:04.507Z,96730.72
2023-04-10T11:24:57.429Z,96735.72
2023-04-10T11:27:48.316Z,96726.22
2023-04-10T11:30:32.804Z,96728.56
2023-04-10T11:33:01.371Z,96715.63
2023-04-10T11:35:31.473Z,96717.91
2023-04-10T11:38:17.135Z,96719.50
2023-04-10T11:41:06.661Z,96708.13
2023-04-10T11:43:35.210Z,96717.50
2023-04-10T11:46:08.554Z,96719.09
2023-04-10T11:48:37.811Z,96712.34
2023-04-10T11:51:14.669Z,96706.47
2023-04-10T11:53:42.887Z,96698.16
2023-04-10T11:56:17.807Z,96698.13
2023-04-10T11:58:45.673Z,96700.66
2023-04-10T12:01:14.560Z,96695.31
2023-04-10T12:03:43.636Z,96697.47
2023-04-10T12:06:13.837Z,96694.75
2023-04-10T12:08:43.081Z,96680.75
2023-04-10T12:11:11.855Z,96695.44
2023-04-10T12:13:40.015Z,96696.19
2023-04-10T12:16:09.686Z,96693.03
2023-04-10T12:18:37.767Z,96697.69
2023-04-10T12:21:08.135Z,96687.66
2023-04-10T12:23:39.104Z,96682.75
2023-04-10T12:26:10.048Z,96679.50
2023-04-10T12:28:38.547Z,96678.59
2023-04-10T12:31:07.310Z,96678.28
2023-04-10T12:33:34.834Z,96675.53
2023-04-10T12:36:02.647Z,96669.25
2023-04-10T12:38:38.707Z,96662.97
2023-04-10T12:41:07.124Z,96657.38
2023-04-10T12:43:36.302Z,96656.13
2023-04-10T12:46:04.376Z,96653.81
2023-04-10T12:48:31.902Z,96650.91
2023-04-10T12:50:59.440Z,96648.47
2023-04-10T12:53:28.012Z,96638.47
2023-04-10T12:56:02.727Z,96632.22
2023-04-10T12:58:31.279Z,96627.41
2023-04-10T13:01:00.744Z,96635.22
2023-04-10T13:03:28.376Z,96630.34
2023-04-10T13:05:56.196Z,96635.06
2023-04-10T13:08:23.833Z,96627.06
2023-04-10T13:10:51.497Z,96624.22
2023-04-10T13:13:20.303Z,96614.19
2023-04-10T13:15:47.844Z,96616.22
2023-04-10T13:18:15.372Z,96609.69
2023-04-10T13:20:43.046Z,96614.75
2023-04-10T13:23:10.734Z,96615.34
2023-04-10T13:25:40.633Z,96603.34
2023-04-10T13:28:11.438Z,96604.81
2023-04-10T13:30:41.971Z,96602.75
2023-04-10T13:33:09.851Z,96596.28
2023-04-10T13:35:37.512Z,96587.56
2023-04-10T13:38:05.114Z,96580.13
2023-04-10T13:40:33.244Z,96573.72
2023-04-10T13:43:00.719Z,96572.75
2023-04-10T13:45:28.543Z,96563.22
2023-04-10T13:47:57.378Z,96564.81
2023-04-10T13:50:24.975Z,96563.88
2023-04-10T13:52:53.721Z,96548.59
2023-04-10T13:55:21.375Z,96548.13
2023-04-10T13:57:48.883Z,96533.63
2023-04-10T14:00:17.161Z,96548.31
2023-04-10T14:02:44.976Z,96539.84
2023-04-10T14:05:13.932Z,96539.00
2023-04-10T14:07:41.424Z,96539.22
2023-04-10T14:10:10.034Z,96533.41
2023-04-10T14:12:38.045Z,96532.59
2023-04-10T14:15:06.608Z,96531.28
2023-04-10T14:17:34.768Z,96528.66
2023-04-10T14:20:02.333Z,96527.63
2023-04-10T14:22:31.679Z,96512.13
2023-04-10T14:25:11.912Z,96512.31
2023-04-10T14:27:40.343Z,96514.38
2023-04-10T14:30:09.236Z,96507.16
2023-04-10T14:32:37.010Z,96506.53
2023-04-10T14:35:04.742Z,96500.75
2023-04-10T14:37:33.566Z,96505.47
2023-04-10T14:40:01.145Z,96501.13
2023-04-10T14:42:28.909Z,96498.06
2023-04-10T14:44:58.713Z,96496.16
2023-04-10T14:47:26.248Z,96498.47
2023-04-10T14:49:53.737Z,96490.00
2023-04-10T14:52:21.193Z,96484.00
2023-04-10T14:54:49.981Z,96485.66
2023-04-10T14:57:17.464Z,96489.56
2023-04-10T14:59:45.238Z,96483.25
2023-04-10T15:02:12.726Z,96478.75
2023-04-10T15:04:40.353Z,96469.94
2023-04-10T15:07:07.847Z,96469.69
2023-04-10T15:09:35.306Z,96462.28
2023-04-10T15:12:04.294Z,96458.56
2023-04-10T15:14:32.039Z,96452.34
2023-04-10T15:16:59.891Z,96450.06
2023-04-10T15:19:27.424Z,96444.06
2023-04-10T15:21:55.604Z,96453.75
2023-04-10T15:24:23.087Z,96440.72
2023-04-10T15:26:50.542Z,96442.41
2023-04-10T15:29:19.430Z,96443.25
2023-04-10T15:31:46.887Z,96439.72
2023-04-10T15:34:14.351Z,96435.56
2023-04-10T15:36:41.789Z,96428.13
2023-04-10T15:39:09.442Z,96439.72
2023-04-10T15:41:36.900Z,96435.78
2023-04-10T15:44:04.415Z,96430.06
2023-04-10T15:46:34.045Z,96432.56
2023-04-10T15:49:01.688Z,96425.63
2023-04-10T15:51:29.188Z,96418.97
2023-04-10T15:53:56.825Z,96412.53
2023-04-10T15:56:24.466Z,96411.84
2023-04-10T15:58:51.937Z,96420.13
2023-04-10T16:01:19.435Z,96420.13
2023-04-10T16:03:49.266Z,96416.22
2023-04-10T16:06:17.097Z,96414.56
2023-04-10T16:08:44.660Z,96414.16
2023-04-10T16:11:12.106Z,96404.34
2023-04-10T16:13:42.250Z,96401.75
2023-04-10T16:16:15.043Z,96423.34
2023-04-10T16:18:44.689Z,96405.00
2023-04-10T16:21:14.191Z,96407.66
2023-04-10T16:23:41.676Z,96406.38
2023-04-10T16:26:09.151Z,96398.19
2023-04-10T16:28:36.616Z,96393.69
2023-04-10T16:31:04.184Z,96393.22
2023-04-10T16:33:31.714Z,96387.97
2023-04-10T16:35:59.219Z,96388.31
2023-04-10T16:38:28.081Z,96385.81
2023-04-10T16:40:55.546Z,96384.25
2023-04-10T16:43:23.797Z,96381.06
2023-04-10T16:45:55.666Z,96381.56
2023-04-10T16:48:23.367Z,96382.31
2023-04-10T16:50:50.873Z,96377.47
2023-04-10T16:53:18.880Z,96370.91
2023-04-10T16:55:47.847Z,96367.03
2023-04-10T16:58:15.309Z,96369.38
2023-04-10T17:00:42.770Z,96371.25
2023-04-10T17:03:10.421Z,96370.53
2023-04-10T17:05:38.213Z,96360.59
2023-04-10T17:08:06.402Z,96362.88
2023-04-10T17:10:33.912Z,96359.59
2023-04-10T17:13:02.811Z,96359.97
2023-04-10T17:15:30.436Z,96366.84
2023-04-10T17:17:57.944Z,96362.75
2023-04-10T17:20:25.577Z,96360.91
2023-04-10T17:22:53.036Z,96368.09
2023-04-10T17:25:20.486Z,96357.03
2023-04-10T17:27:47.943Z,96351.63
2023-04-10T17:30:16.874Z,96339.81
2023-04-10T17:32:44.341Z,96334.25
2023-04-10T17:35:11.839Z,96326.50
2023-04-10T17:37:39.269Z,96330.97
2023-04-10T17:40:08.226Z,96327.25
2023-04-10T17:42:35.719Z,96327.50
2023-04-10T17:45:03.311Z,96321.19
2023-04-10T17:47:32.725Z,96325.69
2023-04-10T17:50:00.269Z,96324.56
2023-04-10T17:52:27.781Z,96325.56
2023-04-10T17:54:55.461Z,96311.28
2023-04-10T17:57:23.066Z,96316.31
2023-04-10T17:59:50.644Z,96315.00
2023-04-10T18:02:18.196Z,96314.94
2023-04-10T18:04:47.092Z,96323.25
2023-04-10T18:07:14.554Z,96317.63
2023-04-10T18:09:42.519Z,96321.53
2023-04-10T18:12:10.648Z,96320.59
2023-04-10T18:14:38.145Z,96318.16
2023-04-10T18:17:05.755Z,96318.97
2023-04-10T18:19:33.267Z,96310.34
2023-04-10T18:22:02.090Z,96308.50
2023-04-10T18:24:29.586Z,96313.28
2023-04-10T18:26:57.167Z,96314.34
2023-04-10T18:29:26.191Z,96303.06
2023-04-10T18:31:53.638Z,96309.00
2023-04-10T18:34:21.112Z,96302.66
2023-04-10T18:36:48.587Z,96307.47
2023-04-10T18:39:17.380Z,96296.53
2023-04-10T18:41:44.845Z,96295.56
2023-04-10T18:44:12.294Z,96292.94
2023-04-10T18:46:42.642Z,96291.63
2023-04-10T18:49:11.777Z,96298.75
2023-04-10T18:51:40.788Z,96295.63
2023-04-10T18:54:08.490Z,96296.75
2023-04-10T18:56:38.193Z,96294.47
2023-04-10T18:59:05.894Z,96296.75
2023-04-10T19:01:33.807Z,96290.13
2023-04-10T19:04:01.854Z,96294.13
2023-04-10T19:06:30.227Z,96288.47
2023-04-10T19:08:57.716Z,96291.94
2023-04-10T19:11:25.444Z,96280.81
2023-04-10T19:13:54.609Z,96279.00
2023-04-10T19:16:22.573Z,96276.31
2023-04-10T19:18:50.401Z,96269.34
2023-04-10T19:21:17.875Z,96266.69
2023-04-10T19:23:46.363Z,96253.56
2023-04-10T19:26:13.857Z,96254.84
2023-04-10T19:28:41.358Z,96255.16
2023-04-10T19:31:10.336Z,96253.50
2023-04-10T19:33:37.839Z,96248.19
2023-04-10T19:36:08.046Z,96227.97
2023-04-10T19:38:35.896Z,96222.97
2023-04-10T19:41:03.363Z,96219.97
2023-04-10T19:43:30.988Z,96223.59
2023-04-10T19:45:59.829Z,96213.19
2023-04-10T19:48:28.683Z,96227.59
2023-04-10T19:50:56.166Z,96241.16
2023-04-10T19:53:23.664Z,96238.31
2023-04-10T19:55:51.125Z,96236.22
2023-04-10T19:58:39.012Z,96217.00
2023-04-10T20:01:08.485Z,96215.88
2023-04-10T20:03:38.515Z,96215.38
2023-04-10T20:06:08.188Z,96225.03
2023-04-10T20:08:35.698Z,96232.94
2023-04-10T20:11:06.526Z,96232.63
2023-04-10T20:13:34.668Z,96233.84
2023-04-10T20:16:02.744Z,96231.19
2023-04-10T20:18:32.086Z,96235.88
2023-04-10T20:21:00.979Z,96224.91
2023-04-10T20:23:28.477Z,96221.22
2023-04-10T20:25:55.979Z,96213.22
2023-04-10T20:28:23.441Z,96217.63
2023-04-10T20:30:50.944Z,96225.06
2023-04-10T20:33:18.425Z,96233.16
2023-04-10T20:35:45.909Z,96226.09
2023-04-10T20:38:14.728Z,96230.66
2023-04-10T20:40:42.228Z,96230.91
2023-04-10T20:43:11.991Z,96225.59
2023-04-10T20:45:39.972Z,96217.41
2023-04-10T20:48:07.919Z,96203.38
2023-04-10T20:50:36.854Z,96197.75
2023-04-10T20:53:04.577Z,96183.81
2023-04-10T20:55:33.858Z,96181.50
2023-04-10T20:58:01.317Z,96190.50
2023-04-10T21:00:30.760Z,96205.31
2023-04-10T21:02:58.545Z,96198.63
2023-04-10T21:05:26.289Z,96215.66
2023-04-10T21:07:54.254Z,96215.19
2023-04-10T21:10:21.964Z,96204.00
2023-04-10T21:12:50.800Z,96188.28
2023-04-10T21:15:18.301Z,96181.81
2023-04-10T21:17:45.811Z,96189.81
2023-04-10T21:20:13.322Z,96181.16
2023-04-10T21:22:40.784Z,96179.69
2023-04-10T21:25:09.193Z,96190.28
2023-04-10T21:27:36.719Z,96188.78
2023-04-10T21:30:06.497Z,96183.34
2023-04-10T21:32:33.978Z,96186.81
2023-04-10T21:35:01.705Z,96178.47
2023-04-10T21:37:29.167Z,96176.16
2023-04-10T21:39:56.609Z,96163.75
2023-04-10T21:42:24.137Z,96151.59
2023-04-10T21:44:51.599Z,96158.78
2023-04-10T21:47:20.399Z,96163.63
2023-04-10T21:49:47.880Z,96155.09
2023-04-10T21:52:15.347Z,96160.53
2023-04-10T21:54:42.807Z,96166.59
2023-04-10T21:57:10.238Z,96160.25
2023-04-10T21:59:37.977Z,96159.09
2023-04-10T22:02:05.555Z,96159.81
2023-04-10T22:04:34.689Z,96153.56
2023-04-10T22:07:05.513Z,96139.03
2023-04-10T22:09:33.080Z,96137.06
2023-04-10T22:12:00.710Z,96139.56
2023-04-10T22:14:28.189Z,96135.72
2023-04-10T22:16:56.587Z,96131.91
2023-04-10T22:19:25.638Z,96124.78
2023-04-10T22:21:54.496Z,96120.94
2023-04-10T22:24:21.953Z,96119.66
2023-04-10T22:26:49.446Z,96110.34
2023-04-10T22:29:16.970Z,96109.69
2023-04-10T22:31:45.126Z,96110.00
2023-04-10T22:34:12.628Z,96104.34
2023-04-10T22:36:41.506Z,96099.53
2023-04-10T22:39:10.309Z,96098.38
2023-04-10T22:41:37.800Z,96097.22
2023-04-10T22:44:07.320Z,96092.56
2023-04-10T22:46:35.043Z,96096.03
2023-04-10T22:49:02.570Z,96091.94
2023-04-10T22:51:30.063Z,96091.97
2023-04-10T22:53:57.617Z,96083.72
2023-04-10T22:56:28.645Z,96084.97
2023-04-10T22:58:56.672Z,96087.34
2023-04-10T23:01:24.350Z,96089.16
2023-04-10T23:03:53.713Z,96087.34
2023-04-10T23:06:21.393Z,96071.44
2023-04-10T23:08:48.906Z,96068.63
2023-04-10T23:11:16.385Z,96050.91
2023-04-10T23:13:45.409Z,96062.91
2023-04-10T23:16:12.887Z,96053.81
2023-04-10T23:18:40.397Z,96045.19
2023-04-10T23:21:08.434Z,96032.69
2023-04-10T23:23:35.922Z,96034.44
2023-04-10T23:26:03.494Z,96032.34
2023-04-10T23:28:30.949Z,96037.41
2023-04-10T23:30:59.777Z,96023.88
2023-04-10T23:33:27.283Z,96023.63
2023-04-10T23:35:54.761Z,96027.72
2023-04-10T23:38:22.283Z,96020.13
2023-04-10T23:40:49.761Z,96025.03
2023-04-10T23:43:17.278Z,96010.03
2023-04-10T23:45:44.743Z,96006.00
2023-04-10T23:48:13.609Z,95997.00
2023-04-10T23:50:41.103Z,95987.34
2023-04-10T23:53:09.136Z,95985.34
2023-04-10T23:55:36.828Z,95983.72
2023-04-10T23:58:04.303Z,95986.91
